sensor_id;sensor_type;location;lat;lon;timestamp;P1;durP1;ratioP1;P2;durP2;ratioP2
61897;SDS011;47850;50.274;18.908;2023-02-19T00:01:47;8.10;;;4.40;;
61897;SDS011;47850;50.274;18.908;2023-02-19T00:04:16;10.80;;;5.50;;
61897;SDS011;47850;50.274;18.908;2023-02-19T00:06:46;10.40;;;4.80;;
61897;SDS011;47850;50.274;18.908;2023-02-19T00:09:15;11.80;;;6.10;;
61897;SDS011;47850;50.274;18.908;2023-02-19T00:11:45;12.10;;;5.70;;
61897;SDS011;47850;50.274;18.908;2023-02-19T00:14:15;7.80;;;4.20;;
61897;SDS011;47850;50.274;18.908;2023-02-19T00:16:44;5.10;;;3.40;;
61897;SDS011;47850;50.274;18.908;2023-02-19T00:19:14;4.30;;;2.60;;
61897;SDS011;47850;50.274;18.908;2023-02-19T00:21:43;4.60;;;2.70;;
61897;SDS011;47850;50.274;18.908;2023-02-19T00:24:11;7.10;;;4.00;;
61897;SDS011;47850;50.274;18.908;2023-02-19T00:26:41;6.70;;;2.70;;
61897;SDS011;47850;50.274;18.908;2023-02-19T00:29:14;5.00;;;3.30;;
61897;SDS011;47850;50.274;18.908;2023-02-19T00:31:45;5.60;;;3.30;;
61897;SDS011;47850;50.274;18.908;2023-02-19T00:34:13;8.80;;;4.50;;
61897;SDS011;47850;50.274;18.908;2023-02-19T00:36:41;8.80;;;4.90;;
61897;SDS011;47850;50.274;18.908;2023-02-19T00:39:11;8.60;;;5.30;;
61897;SDS011;47850;50.274;18.908;2023-02-19T00:41:41;8.60;;;5.30;;
61897;SDS011;47850;50.274;18.908;2023-02-19T00:44:10;10.70;;;7.10;;
61897;SDS011;47850;50.274;18.908;2023-02-19T00:46:40;13.20;;;7.60;;
61897;SDS011;47850;50.274;18.908;2023-02-19T00:49:22;13.60;;;8.70;;
61897;SDS011;47850;50.274;18.908;2023-02-19T00:54:19;12.10;;;7.40;;
61897;SDS011;47850;50.274;18.908;2023-02-19T00:56:49;16.90;;;8.80;;
61897;SDS011;47850;50.274;18.908;2023-02-19T00:59:17;13.90;;;7.30;;
61897;SDS011;47850;50.274;18.908;2023-02-19T01:01:45;14.60;;;8.20;;
61897;SDS011;47850;50.274;18.908;2023-02-19T01:04:12;11.20;;;6.50;;
61897;SDS011;47850;50.274;18.908;2023-02-19T01:06:41;10.10;;;4.90;;
61897;SDS011;47850;50.274;18.908;2023-02-19T01:09:09;11.10;;;6.00;;
61897;SDS011;47850;50.274;18.908;2023-02-19T01:11:36;11.60;;;6.00;;
61897;SDS011;47850;50.274;18.908;2023-02-19T01:14:04;10.20;;;5.70;;
61897;SDS011;47850;50.274;18.908;2023-02-19T01:16:32;10.40;;;6.20;;
61897;SDS011;47850;50.274;18.908;2023-02-19T01:19:00;12.90;;;7.90;;
61897;SDS011;47850;50.274;18.908;2023-02-19T01:21:29;12.80;;;7.70;;
61897;SDS011;47850;50.274;18.908;2023-02-19T01:23:57;10.30;;;6.80;;
61897;SDS011;47850;50.274;18.908;2023-02-19T01:26:27;14.10;;;7.70;;
61897;SDS011;47850;50.274;18.908;2023-02-19T01:28:57;12.00;;;7.80;;
61897;SDS011;47850;50.274;18.908;2023-02-19T01:31:28;10.60;;;4.50;;
61897;SDS011;47850;50.274;18.908;2023-02-19T01:34:00;7.90;;;5.00;;
61897;SDS011;47850;50.274;18.908;2023-02-19T01:36:31;14.00;;;9.00;;
61897;SDS011;47850;50.274;18.908;2023-02-19T01:39:01;15.50;;;10.80;;
61897;SDS011;47850;50.274;18.908;2023-02-19T01:41:34;15.30;;;10.30;;
61897;SDS011;47850;50.274;18.908;2023-02-19T01:46:40;15.20;;;9.20;;
61897;SDS011;47850;50.274;18.908;2023-02-19T01:49:31;15.90;;;11.30;;
61897;SDS011;47850;50.274;18.908;2023-02-19T01:54:32;13.30;;;8.60;;
61897;SDS011;47850;50.274;18.908;2023-02-19T01:57:04;11.90;;;6.90;;
61897;SDS011;47850;50.274;18.908;2023-02-19T01:59:38;12.60;;;7.70;;
61897;SDS011;47850;50.274;18.908;2023-02-19T02:02:06;14.00;;;9.30;;
61897;SDS011;47850;50.274;18.908;2023-02-19T02:04:35;11.40;;;7.80;;
61897;SDS011;47850;50.274;18.908;2023-02-19T02:07:03;10.60;;;7.10;;
61897;SDS011;47850;50.274;18.908;2023-02-19T02:09:52;11.40;;;7.40;;
61897;SDS011;47850;50.274;18.908;2023-02-19T02:12:40;9.70;;;6.50;;
61897;SDS011;47850;50.274;18.908;2023-02-19T02:15:08;12.90;;;9.20;;
61897;SDS011;47850;50.274;18.908;2023-02-19T02:20:40;14.50;;;10.80;;
61897;SDS011;47850;50.274;18.908;2023-02-19T02:26:15;16.90;;;11.40;;
61897;SDS011;47850;50.274;18.908;2023-02-19T02:31:48;13.70;;;8.60;;
61897;SDS011;47850;50.274;18.908;2023-02-19T02:34:26;16.60;;;11.20;;
61897;SDS011;47850;50.274;18.908;2023-02-19T02:37:00;16.40;;;10.60;;
61897;SDS011;47850;50.274;18.908;2023-02-19T02:39:30;12.80;;;8.40;;
61897;SDS011;47850;50.274;18.908;2023-02-19T02:41:59;9.60;;;7.40;;
61897;SDS011;47850;50.274;18.908;2023-02-19T02:44:45;9.40;;;6.90;;
61897;SDS011;47850;50.274;18.908;2023-02-19T02:47:35;8.40;;;5.40;;
61897;SDS011;47850;50.274;18.908;2023-02-19T02:50:18;10.20;;;6.00;;
61897;SDS011;47850;50.274;18.908;2023-02-19T02:52:55;10.30;;;5.10;;
61897;SDS011;47850;50.274;18.908;2023-02-19T02:55:47;8.20;;;4.80;;
61897;SDS011;47850;50.274;18.908;2023-02-19T02:58:18;5.40;;;4.10;;
61897;SDS011;47850;50.274;18.908;2023-02-19T03:00:50;6.00;;;3.50;;
61897;SDS011;47850;50.274;18.908;2023-02-19T03:03:44;6.60;;;3.10;;
61897;SDS011;47850;50.274;18.908;2023-02-19T03:06:16;5.20;;;3.00;;
61897;SDS011;47850;50.274;18.908;2023-02-19T03:08:50;4.60;;;3.00;;
61897;SDS011;47850;50.274;18.908;2023-02-19T03:11:23;4.00;;;2.60;;
61897;SDS011;47850;50.274;18.908;2023-02-19T03:14:17;3.30;;;2.00;;
61897;SDS011;47850;50.274;18.908;2023-02-19T03:17:12;2.20;;;1.60;;
61897;SDS011;47850;50.274;18.908;2023-02-19T03:20:08;3.50;;;2.20;;
61897;SDS011;47850;50.274;18.908;2023-02-19T03:22:40;3.90;;;2.10;;
61897;SDS011;47850;50.274;18.908;2023-02-19T03:25:12;4.40;;;2.40;;
61897;SDS011;47850;50.274;18.908;2023-02-19T03:28:03;3.50;;;2.00;;
61897;SDS011;47850;50.274;18.908;2023-02-19T03:30:35;3.70;;;1.90;;
61897;SDS011;47850;50.274;18.908;2023-02-19T03:33:14;3.40;;;2.10;;
61897;SDS011;47850;50.274;18.908;2023-02-19T03:35:46;3.60;;;1.80;;
61897;SDS011;47850;50.274;18.908;2023-02-19T03:38:20;3.00;;;1.80;;
61897;SDS011;47850;50.274;18.908;2023-02-19T03:40:58;3.30;;;1.90;;
61897;SDS011;47850;50.274;18.908;2023-02-19T03:43:37;5.80;;;1.80;;
61897;SDS011;47850;50.274;18.908;2023-02-19T03:51:42;2.40;;;2.00;;
61897;SDS011;47850;50.274;18.908;2023-02-19T03:59:42;5.90;;;3.20;;
61897;SDS011;47850;50.274;18.908;2023-02-19T04:02:28;6.10;;;3.50;;
61897;SDS011;47850;50.274;18.908;2023-02-19T04:05:04;6.00;;;3.80;;
61897;SDS011;47850;50.274;18.908;2023-02-19T04:07:34;6.10;;;3.50;;
61897;SDS011;47850;50.274;18.908;2023-02-19T04:10:07;11.00;;;5.80;;
61897;SDS011;47850;50.274;18.908;2023-02-19T04:12:37;7.50;;;4.50;;
61897;SDS011;47850;50.274;18.908;2023-02-19T04:15:10;10.70;;;5.20;;
61897;SDS011;47850;50.274;18.908;2023-02-19T04:17:58;10.20;;;6.20;;
61897;SDS011;47850;50.274;18.908;2023-02-19T04:20:31;10.00;;;7.00;;
61897;SDS011;47850;50.274;18.908;2023-02-19T04:23:05;9.90;;;7.00;;
61897;SDS011;47850;50.274;18.908;2023-02-19T04:25:33;9.10;;;6.30;;
61897;SDS011;47850;50.274;18.908;2023-02-19T04:28:03;8.90;;;5.40;;
61897;SDS011;47850;50.274;18.908;2023-02-19T04:30:31;8.50;;;6.10;;
61897;SDS011;47850;50.274;18.908;2023-02-19T04:32:59;8.00;;;5.30;;
61897;SDS011;47850;50.274;18.908;2023-02-19T04:35:27;8.60;;;6.10;;
61897;SDS011;47850;50.274;18.908;2023-02-19T04:37:54;7.10;;;5.30;;
61897;SDS011;47850;50.274;18.908;2023-02-19T04:40:22;8.40;;;5.70;;
61897;SDS011;47850;50.274;18.908;2023-02-19T04:42:50;9.90;;;7.50;;
61897;SDS011;47850;50.274;18.908;2023-02-19T04:45:18;7.30;;;5.20;;
61897;SDS011;47850;50.274;18.908;2023-02-19T04:47:46;9.60;;;6.30;;
61897;SDS011;47850;50.274;18.908;2023-02-19T04:50:14;7.20;;;5.30;;
61897;SDS011;47850;50.274;18.908;2023-02-19T04:52:42;8.20;;;5.50;;
61897;SDS011;47850;50.274;18.908;2023-02-19T04:55:09;8.10;;;5.70;;
61897;SDS011;47850;50.274;18.908;2023-02-19T04:57:37;12.60;;;6.90;;
61897;SDS011;47850;50.274;18.908;2023-02-19T05:00:05;8.70;;;5.70;;
61897;SDS011;47850;50.274;18.908;2023-02-19T05:02:34;10.30;;;6.50;;
61897;SDS011;47850;50.274;18.908;2023-02-19T05:05:02;7.10;;;4.70;;
61897;SDS011;47850;50.274;18.908;2023-02-19T05:07:30;12.00;;;5.80;;
61897;SDS011;47850;50.274;18.908;2023-02-19T05:09:58;8.40;;;6.40;;
61897;SDS011;47850;50.274;18.908;2023-02-19T05:12:28;9.00;;;6.10;;
61897;SDS011;47850;50.274;18.908;2023-02-19T05:14:57;9.80;;;6.60;;
61897;SDS011;47850;50.274;18.908;2023-02-19T05:17:25;8.20;;;5.50;;
61897;SDS011;47850;50.274;18.908;2023-02-19T05:19:53;8.50;;;6.10;;
61897;SDS011;47850;50.274;18.908;2023-02-19T05:22:20;9.50;;;6.20;;
61897;SDS011;47850;50.274;18.908;2023-02-19T05:24:48;10.40;;;6.50;;
61897;SDS011;47850;50.274;18.908;2023-02-19T05:27:16;10.90;;;6.90;;
61897;SDS011;47850;50.274;18.908;2023-02-19T05:29:44;11.10;;;7.40;;
61897;SDS011;47850;50.274;18.908;2023-02-19T05:32:12;11.70;;;7.60;;
61897;SDS011;47850;50.274;18.908;2023-02-19T05:34:39;9.00;;;6.00;;
61897;SDS011;47850;50.274;18.908;2023-02-19T05:37:07;11.80;;;8.50;;
61897;SDS011;47850;50.274;18.908;2023-02-19T05:39:35;15.00;;;9.90;;
61897;SDS011;47850;50.274;18.908;2023-02-19T05:42:03;9.00;;;6.20;;
61897;SDS011;47850;50.274;18.908;2023-02-19T05:44:30;12.40;;;8.50;;
61897;SDS011;47850;50.274;18.908;2023-02-19T05:46:59;9.70;;;6.60;;
61897;SDS011;47850;50.274;18.908;2023-02-19T05:49:27;9.10;;;6.70;;
61897;SDS011;47850;50.274;18.908;2023-02-19T05:51:55;8.20;;;5.00;;
61897;SDS011;47850;50.274;18.908;2023-02-19T05:54:23;7.50;;;5.10;;
61897;SDS011;47850;50.274;18.908;2023-02-19T05:56:50;7.00;;;4.10;;
61897;SDS011;47850;50.274;18.908;2023-02-19T05:59:20;5.00;;;3.40;;
61897;SDS011;47850;50.274;18.908;2023-02-19T06:01:51;3.60;;;2.70;;
61897;SDS011;47850;50.274;18.908;2023-02-19T06:04:19;5.40;;;3.00;;
61897;SDS011;47850;50.274;18.908;2023-02-19T06:06:47;6.60;;;3.50;;
61897;SDS011;47850;50.274;18.908;2023-02-19T06:09:16;6.30;;;3.30;;
61897;SDS011;47850;50.274;18.908;2023-02-19T06:11:44;5.90;;;3.10;;
61897;SDS011;47850;50.274;18.908;2023-02-19T06:14:13;4.30;;;2.40;;
61897;SDS011;47850;50.274;18.908;2023-02-19T06:16:41;4.30;;;2.80;;
61897;SDS011;47850;50.274;18.908;2023-02-19T06:19:09;3.20;;;2.20;;
61897;SDS011;47850;50.274;18.908;2023-02-19T06:21:37;4.10;;;2.30;;
61897;SDS011;47850;50.274;18.908;2023-02-19T06:24:06;5.10;;;2.80;;
61897;SDS011;47850;50.274;18.908;2023-02-19T06:26:34;5.00;;;3.00;;
61897;SDS011;47850;50.274;18.908;2023-02-19T06:29:03;6.10;;;3.20;;
61897;SDS011;47850;50.274;18.908;2023-02-19T06:31:31;6.60;;;3.70;;
61897;SDS011;47850;50.274;18.908;2023-02-19T06:34:02;9.90;;;5.00;;
61897;SDS011;47850;50.274;18.908;2023-02-19T06:36:31;6.80;;;3.50;;
61897;SDS011;47850;50.274;18.908;2023-02-19T06:38:59;7.50;;;4.00;;
61897;SDS011;47850;50.274;18.908;2023-02-19T06:41:28;8.60;;;5.50;;
61897;SDS011;47850;50.274;18.908;2023-02-19T06:43:56;8.90;;;5.30;;
61897;SDS011;47850;50.274;18.908;2023-02-19T06:46:25;10.60;;;6.20;;
61897;SDS011;47850;50.274;18.908;2023-02-19T06:48:53;9.10;;;6.30;;
61897;SDS011;47850;50.274;18.908;2023-02-19T06:51:20;8.10;;;5.20;;
61897;SDS011;47850;50.274;18.908;2023-02-19T06:53:53;7.50;;;4.90;;
61897;SDS011;47850;50.274;18.908;2023-02-19T06:56:26;9.20;;;5.20;;
61897;SDS011;47850;50.274;18.908;2023-02-19T06:58:58;9.80;;;5.70;;
61897;SDS011;47850;50.274;18.908;2023-02-19T07:03:56;7.30;;;4.40;;
61897;SDS011;47850;50.274;18.908;2023-02-19T07:06:25;9.80;;;6.80;;
61897;SDS011;47850;50.274;18.908;2023-02-19T07:08:53;12.80;;;8.20;;
61897;SDS011;47850;50.274;18.908;2023-02-19T07:11:23;11.10;;;8.50;;
61897;SDS011;47850;50.274;18.908;2023-02-19T07:13:55;11.70;;;7.10;;
61897;SDS011;47850;50.274;18.908;2023-02-19T07:16:23;16.80;;;11.00;;
61897;SDS011;47850;50.274;18.908;2023-02-19T07:18:54;18.60;;;11.30;;
61897;SDS011;47850;50.274;18.908;2023-02-19T07:21:24;21.80;;;12.90;;
61897;SDS011;47850;50.274;18.908;2023-02-19T07:23:52;15.00;;;8.90;;
61897;SDS011;47850;50.274;18.908;2023-02-19T07:26:20;20.80;;;11.90;;
61897;SDS011;47850;50.274;18.908;2023-02-19T07:28:49;15.90;;;8.80;;
61897;SDS011;47850;50.274;18.908;2023-02-19T07:31:19;23.00;;;11.40;;
61897;SDS011;47850;50.274;18.908;2023-02-19T07:33:48;22.40;;;11.70;;
61897;SDS011;47850;50.274;18.908;2023-02-19T07:36:17;22.00;;;11.90;;
61897;SDS011;47850;50.274;18.908;2023-02-19T07:38:45;18.50;;;11.40;;
61897;SDS011;47850;50.274;18.908;2023-02-19T07:41:14;21.10;;;12.80;;
61897;SDS011;47850;50.274;18.908;2023-02-19T07:43:42;20.50;;;10.30;;
61897;SDS011;47850;50.274;18.908;2023-02-19T07:46:11;21.10;;;12.70;;
61897;SDS011;47850;50.274;18.908;2023-02-19T07:51:10;19.50;;;10.90;;
61897;SDS011;47850;50.274;18.908;2023-02-19T07:53:40;18.90;;;12.70;;
61897;SDS011;47850;50.274;18.908;2023-02-19T07:56:09;23.70;;;14.30;;
61897;SDS011;47850;50.274;18.908;2023-02-19T07:58:38;22.70;;;12.40;;
61897;SDS011;47850;50.274;18.908;2023-02-19T08:01:13;24.10;;;14.40;;
61897;SDS011;47850;50.274;18.908;2023-02-19T08:04:10;27.00;;;16.00;;
61897;SDS011;47850;50.274;18.908;2023-02-19T08:06:40;27.30;;;16.40;;
61897;SDS011;47850;50.274;18.908;2023-02-19T08:09:08;19.00;;;11.80;;
61897;SDS011;47850;50.274;18.908;2023-02-19T08:11:36;20.70;;;11.80;;
61897;SDS011;47850;50.274;18.908;2023-02-19T08:14:33;18.10;;;10.90;;
61897;SDS011;47850;50.274;18.908;2023-02-19T08:17:01;13.90;;;8.10;;
61897;SDS011;47850;50.274;18.908;2023-02-19T08:19:29;21.80;;;13.20;;
61897;SDS011;47850;50.274;18.908;2023-02-19T08:21:58;23.90;;;13.20;;
61897;SDS011;47850;50.274;18.908;2023-02-19T08:24:25;24.80;;;13.30;;
61897;SDS011;47850;50.274;18.908;2023-02-19T08:26:53;22.30;;;14.20;;
61897;SDS011;47850;50.274;18.908;2023-02-19T08:29:21;25.50;;;15.70;;
61897;SDS011;47850;50.274;18.908;2023-02-19T08:31:49;22.30;;;14.20;;
61897;SDS011;47850;50.274;18.908;2023-02-19T08:34:17;20.80;;;12.20;;
61897;SDS011;47850;50.274;18.908;2023-02-19T08:36:44;22.30;;;14.40;;
61897;SDS011;47850;50.274;18.908;2023-02-19T08:39:12;19.50;;;12.70;;
61897;SDS011;47850;50.274;18.908;2023-02-19T08:41:40;13.60;;;8.90;;
61897;SDS011;47850;50.274;18.908;2023-02-19T08:44:08;15.70;;;9.50;;
61897;SDS011;47850;50.274;18.908;2023-02-19T08:46:36;13.10;;;9.10;;
61897;SDS011;47850;50.274;18.908;2023-02-19T08:49:04;15.30;;;10.30;;
61897;SDS011;47850;50.274;18.908;2023-02-19T08:51:32;9.70;;;6.80;;
61897;SDS011;47850;50.274;18.908;2023-02-19T08:54:00;6.70;;;4.40;;
61897;SDS011;47850;50.274;18.908;2023-02-19T08:56:30;4.80;;;2.90;;
61897;SDS011;47850;50.274;18.908;2023-02-19T08:58:57;6.90;;;4.40;;
61897;SDS011;47850;50.274;18.908;2023-02-19T09:01:25;6.60;;;3.60;;
61897;SDS011;47850;50.274;18.908;2023-02-19T09:03:53;7.10;;;4.80;;
61897;SDS011;47850;50.274;18.908;2023-02-19T09:06:21;7.80;;;4.60;;
61897;SDS011;47850;50.274;18.908;2023-02-19T09:08:49;8.30;;;5.30;;
61897;SDS011;47850;50.274;18.908;2023-02-19T09:11:16;11.00;;;4.60;;
61897;SDS011;47850;50.274;18.908;2023-02-19T09:13:44;10.60;;;6.40;;
61897;SDS011;47850;50.274;18.908;2023-02-19T09:16:12;11.80;;;6.40;;
61897;SDS011;47850;50.274;18.908;2023-02-19T09:18:40;11.60;;;7.00;;
61897;SDS011;47850;50.274;18.908;2023-02-19T09:21:08;10.90;;;6.70;;
61897;SDS011;47850;50.274;18.908;2023-02-19T09:23:35;9.00;;;6.40;;
61897;SDS011;47850;50.274;18.908;2023-02-19T09:26:04;11.80;;;7.50;;
61897;SDS011;47850;50.274;18.908;2023-02-19T09:28:36;11.60;;;7.20;;
61897;SDS011;47850;50.274;18.908;2023-02-19T09:31:08;16.00;;;7.50;;
61897;SDS011;47850;50.274;18.908;2023-02-19T09:33:45;11.50;;;6.80;;
61897;SDS011;47850;50.274;18.908;2023-02-19T09:36:14;8.80;;;5.10;;
61897;SDS011;47850;50.274;18.908;2023-02-19T09:38:43;5.90;;;3.80;;
61897;SDS011;47850;50.274;18.908;2023-02-19T09:41:14;6.40;;;3.70;;
61897;SDS011;47850;50.274;18.908;2023-02-19T09:46:26;3.30;;;2.30;;
61897;SDS011;47850;50.274;18.908;2023-02-19T09:52:02;4.30;;;2.30;;
61897;SDS011;47850;50.274;18.908;2023-02-19T09:54:37;4.30;;;2.30;;
61897;SDS011;47850;50.274;18.908;2023-02-19T09:57:10;3.70;;;2.20;;
61897;SDS011;47850;50.274;18.908;2023-02-19T10:02:15;6.00;;;3.10;;
61897;SDS011;47850;50.274;18.908;2023-02-19T10:04:46;5.70;;;3.00;;
61897;SDS011;47850;50.274;18.908;2023-02-19T10:07:16;5.90;;;3.20;;
61897;SDS011;47850;50.274;18.908;2023-02-19T10:09:50;6.30;;;2.60;;
61897;SDS011;47850;50.274;18.908;2023-02-19T10:12:25;5.60;;;3.10;;
61897;SDS011;47850;50.274;18.908;2023-02-19T10:14:57;6.60;;;3.90;;
61897;SDS011;47850;50.274;18.908;2023-02-19T10:17:32;10.70;;;5.30;;
61897;SDS011;47850;50.274;18.908;2023-02-19T10:20:02;10.90;;;5.20;;
61897;SDS011;47850;50.274;18.908;2023-02-19T10:22:31;16.00;;;7.40;;
61897;SDS011;47850;50.274;18.908;2023-02-19T10:25:00;10.80;;;6.10;;
61897;SDS011;47850;50.274;18.908;2023-02-19T10:27:29;13.30;;;7.00;;
61897;SDS011;47850;50.274;18.908;2023-02-19T10:29:57;12.20;;;6.10;;
61897;SDS011;47850;50.274;18.908;2023-02-19T10:32:26;12.30;;;6.20;;
61897;SDS011;47850;50.274;18.908;2023-02-19T10:35:10;11.00;;;6.30;;
61897;SDS011;47850;50.274;18.908;2023-02-19T10:37:56;10.10;;;5.90;;
61897;SDS011;47850;50.274;18.908;2023-02-19T10:40:25;9.30;;;5.60;;
61897;SDS011;47850;50.274;18.908;2023-02-19T10:42:55;12.90;;;7.20;;
61897;SDS011;47850;50.274;18.908;2023-02-19T10:48:01;16.60;;;10.10;;
61897;SDS011;47850;50.274;18.908;2023-02-19T10:50:31;15.80;;;9.90;;
61897;SDS011;47850;50.274;18.908;2023-02-19T10:53:07;17.00;;;7.50;;
61897;SDS011;47850;50.274;18.908;2023-02-19T10:56:06;7.50;;;4.10;;
61897;SDS011;47850;50.274;18.908;2023-02-19T11:01:58;7.50;;;3.80;;
61897;SDS011;47850;50.274;18.908;2023-02-19T11:04:46;7.30;;;3.50;;
61897;SDS011;47850;50.274;18.908;2023-02-19T11:07:29;6.40;;;3.00;;
61897;SDS011;47850;50.274;18.908;2023-02-19T11:09:57;5.40;;;2.80;;
61897;SDS011;47850;50.274;18.908;2023-02-19T11:12:29;8.50;;;4.00;;
61897;SDS011;47850;50.274;18.908;2023-02-19T11:15:17;6.50;;;3.10;;
61897;SDS011;47850;50.274;18.908;2023-02-19T11:23:26;18.70;;;8.10;;
61897;SDS011;47850;50.274;18.908;2023-02-19T11:25:56;33.10;;;13.60;;
61897;SDS011;47850;50.274;18.908;2023-02-19T11:34:00;27.50;;;10.20;;
61897;SDS011;47850;50.274;18.908;2023-02-19T11:53:35;10.00;;;4.60;;
61897;SDS011;47850;50.274;18.908;2023-02-19T11:56:14;11.30;;;4.00;;
61897;SDS011;47850;50.274;18.908;2023-02-19T12:13:02;6.60;;;3.60;;
61897;SDS011;47850;50.274;18.908;2023-02-19T12:19:21;11.70;;;5.20;;
61897;SDS011;47850;50.274;18.908;2023-02-19T12:22:10;8.70;;;4.20;;
61897;SDS011;47850;50.274;18.908;2023-02-19T12:36:40;6.40;;;3.00;;
61897;SDS011;47850;50.274;18.908;2023-02-19T12:44:44;6.90;;;2.90;;
61897;SDS011;47850;50.274;18.908;2023-02-19T12:47:20;6.80;;;3.00;;
61897;SDS011;47850;50.274;18.908;2023-02-19T12:50:13;6.60;;;2.60;;
61897;SDS011;47850;50.274;18.908;2023-02-19T12:52:49;4.10;;;2.10;;
61897;SDS011;47850;50.274;18.908;2023-02-19T12:55:30;6.40;;;2.40;;
61897;SDS011;47850;50.274;18.908;2023-02-19T12:58:03;4.70;;;2.20;;
61897;SDS011;47850;50.274;18.908;2023-02-19T13:00:38;4.60;;;2.30;;
61897;SDS011;47850;50.274;18.908;2023-02-19T13:03:21;3.90;;;1.60;;
61897;SDS011;47850;50.274;18.908;2023-02-19T13:08:41;5.50;;;1.50;;
61897;SDS011;47850;50.274;18.908;2023-02-19T13:11:16;4.20;;;1.90;;
61897;SDS011;47850;50.274;18.908;2023-02-19T13:13:50;4.40;;;1.60;;
61897;SDS011;47850;50.274;18.908;2023-02-19T13:16:23;4.20;;;1.40;;
61897;SDS011;47850;50.274;18.908;2023-02-19T13:18:53;4.80;;;2.20;;
61897;SDS011;47850;50.274;18.908;2023-02-19T13:21:26;4.30;;;1.80;;
61897;SDS011;47850;50.274;18.908;2023-02-19T13:24:16;4.90;;;2.30;;
61897;SDS011;47850;50.274;18.908;2023-02-19T13:38:44;3.70;;;2.20;;
61897;SDS011;47850;50.274;18.908;2023-02-19T13:43:56;5.80;;;2.50;;
61897;SDS011;47850;50.274;18.908;2023-02-19T13:46:49;6.80;;;2.70;;
61897;SDS011;47850;50.274;18.908;2023-02-19T13:51:58;4.40;;;1.80;;
61897;SDS011;47850;50.274;18.908;2023-02-19T13:54:46;4.50;;;2.10;;
61897;SDS011;47850;50.274;18.908;2023-02-19T13:57:18;5.80;;;2.50;;
61897;SDS011;47850;50.274;18.908;2023-02-19T13:59:47;4.20;;;1.90;;
61897;SDS011;47850;50.274;18.908;2023-02-19T14:09:54;7.30;;;2.80;;
61897;SDS011;47850;50.274;18.908;2023-02-19T14:12:22;5.30;;;2.00;;
61897;SDS011;47850;50.274;18.908;2023-02-19T14:21:14;3.80;;;1.90;;
61897;SDS011;47850;50.274;18.908;2023-02-19T14:23:44;4.10;;;1.90;;
61897;SDS011;47850;50.274;18.908;2023-02-19T14:26:29;5.90;;;2.20;;
61897;SDS011;47850;50.274;18.908;2023-02-19T14:28:59;7.10;;;2.70;;
61897;SDS011;47850;50.274;18.908;2023-02-19T14:31:32;5.10;;;2.30;;
61897;SDS011;47850;50.274;18.908;2023-02-19T14:34:05;5.50;;;2.60;;
61897;SDS011;47850;50.274;18.908;2023-02-19T14:36:46;3.60;;;2.00;;
61897;SDS011;47850;50.274;18.908;2023-02-19T14:39:21;6.70;;;2.30;;
61897;SDS011;47850;50.274;18.908;2023-02-19T14:41:59;4.60;;;2.50;;
61897;SDS011;47850;50.274;18.908;2023-02-19T14:44:29;5.40;;;2.70;;
61897;SDS011;47850;50.274;18.908;2023-02-19T14:52:21;5.30;;;2.00;;
61897;SDS011;47850;50.274;18.908;2023-02-19T14:54:53;4.80;;;2.30;;
61897;SDS011;47850;50.274;18.908;2023-02-19T14:57:28;4.10;;;2.10;;
61897;SDS011;47850;50.274;18.908;2023-02-19T14:59:59;7.70;;;2.90;;
61897;SDS011;47850;50.274;18.908;2023-02-19T15:02:29;8.80;;;3.20;;
61897;SDS011;47850;50.274;18.908;2023-02-19T15:04:59;6.40;;;2.00;;
61897;SDS011;47850;50.274;18.908;2023-02-19T15:07:27;6.90;;;2.50;;
61897;SDS011;47850;50.274;18.908;2023-02-19T15:10:01;7.70;;;3.20;;
61897;SDS011;47850;50.274;18.908;2023-02-19T15:12:33;8.60;;;3.00;;
61897;SDS011;47850;50.274;18.908;2023-02-19T15:15:07;8.10;;;3.00;;
61897;SDS011;47850;50.274;18.908;2023-02-19T15:17:35;7.50;;;3.70;;
61897;SDS011;47850;50.274;18.908;2023-02-19T15:20:10;11.50;;;3.50;;
61897;SDS011;47850;50.274;18.908;2023-02-19T15:22:42;7.30;;;3.50;;
61897;SDS011;47850;50.274;18.908;2023-02-19T15:25:16;8.00;;;2.80;;
61897;SDS011;47850;50.274;18.908;2023-02-19T15:27:46;11.00;;;4.30;;
61897;SDS011;47850;50.274;18.908;2023-02-19T15:30:25;7.30;;;3.30;;
61897;SDS011;47850;50.274;18.908;2023-02-19T15:32:59;7.70;;;3.40;;
61897;SDS011;47850;50.274;18.908;2023-02-19T15:35:28;9.50;;;3.90;;
61897;SDS011;47850;50.274;18.908;2023-02-19T15:37:59;10.70;;;4.00;;
61897;SDS011;47850;50.274;18.908;2023-02-19T15:40:28;10.40;;;4.20;;
61897;SDS011;47850;50.274;18.908;2023-02-19T15:42:57;7.30;;;3.00;;
61897;SDS011;47850;50.274;18.908;2023-02-19T15:45:31;8.40;;;3.00;;
61897;SDS011;47850;50.274;18.908;2023-02-19T15:48:12;8.70;;;3.50;;
61897;SDS011;47850;50.274;18.908;2023-02-19T15:50:46;10.40;;;3.30;;
61897;SDS011;47850;50.274;18.908;2023-02-19T15:53:20;6.90;;;3.10;;
61897;SDS011;47850;50.274;18.908;2023-02-19T15:55:58;7.80;;;3.20;;
61897;SDS011;47850;50.274;18.908;2023-02-19T15:58:38;9.10;;;3.30;;
61897;SDS011;47850;50.274;18.908;2023-02-19T16:01:19;9.30;;;3.60;;
61897;SDS011;47850;50.274;18.908;2023-02-19T16:03:55;9.80;;;3.90;;
61897;SDS011;47850;50.274;18.908;2023-02-19T16:06:25;8.30;;;3.50;;
61897;SDS011;47850;50.274;18.908;2023-02-19T16:14:34;11.50;;;4.20;;
61897;SDS011;47850;50.274;18.908;2023-02-19T16:22:26;8.20;;;4.30;;
61897;SDS011;47850;50.274;18.908;2023-02-19T16:27:38;10.60;;;4.90;;
61897;SDS011;47850;50.274;18.908;2023-02-19T16:35:48;9.80;;;4.30;;
61897;SDS011;47850;50.274;18.908;2023-02-19T16:38:18;10.50;;;5.00;;
61897;SDS011;47850;50.274;18.908;2023-02-19T16:46:18;12.30;;;5.20;;
61897;SDS011;47850;50.274;18.908;2023-02-19T16:48:47;9.10;;;4.80;;
61897;SDS011;47850;50.274;18.908;2023-02-19T16:51:22;11.50;;;4.60;;
61897;SDS011;47850;50.274;18.908;2023-02-19T16:53:52;9.00;;;3.70;;
61897;SDS011;47850;50.274;18.908;2023-02-19T16:56:20;7.40;;;3.70;;
61897;SDS011;47850;50.274;18.908;2023-02-19T16:58:49;13.50;;;4.70;;
61897;SDS011;47850;50.274;18.908;2023-02-19T17:01:17;9.40;;;4.10;;
61897;SDS011;47850;50.274;18.908;2023-02-19T17:03:47;7.30;;;3.20;;
61897;SDS011;47850;50.274;18.908;2023-02-19T17:06:15;10.70;;;3.50;;
61897;SDS011;47850;50.274;18.908;2023-02-19T17:08:43;12.90;;;3.90;;
61897;SDS011;47850;50.274;18.908;2023-02-19T17:11:13;11.10;;;4.60;;
61897;SDS011;47850;50.274;18.908;2023-02-19T17:13:42;9.20;;;4.10;;
61897;SDS011;47850;50.274;18.908;2023-02-19T17:16:19;7.20;;;3.60;;
61897;SDS011;47850;50.274;18.908;2023-02-19T17:19:16;9.00;;;4.90;;
61897;SDS011;47850;50.274;18.908;2023-02-19T17:21:46;11.60;;;4.70;;
61897;SDS011;47850;50.274;18.908;2023-02-19T17:24:13;12.50;;;5.10;;
61897;SDS011;47850;50.274;18.908;2023-02-19T17:26:42;11.60;;;5.10;;
61897;SDS011;47850;50.274;18.908;2023-02-19T17:29:10;8.30;;;3.40;;
61897;SDS011;47850;50.274;18.908;2023-02-19T17:31:41;11.30;;;4.30;;
61897;SDS011;47850;50.274;18.908;2023-02-19T17:34:09;11.30;;;4.90;;
61897;SDS011;47850;50.274;18.908;2023-02-19T17:36:37;13.40;;;5.40;;
61897;SDS011;47850;50.274;18.908;2023-02-19T17:39:08;17.10;;;5.60;;
61897;SDS011;47850;50.274;18.908;2023-02-19T17:41:41;12.70;;;4.30;;
61897;SDS011;47850;50.274;18.908;2023-02-19T17:44:09;11.40;;;5.30;;
61897;SDS011;47850;50.274;18.908;2023-02-19T17:46:37;14.40;;;5.20;;
61897;SDS011;47850;50.274;18.908;2023-02-19T17:49:06;9.90;;;4.40;;
61897;SDS011;47850;50.274;18.908;2023-02-19T17:51:34;11.40;;;5.30;;